^^
Datos históricos de la estación: Murcia-Puente Tocinos
Diario Informe para Abril 17, 2019 Unidades:  Ambas    Ingés   Métrico
Diario Semanal Mensual Anual
  Máxima: Mínima: Promedio:
Temperatura: 96.6 °F /  35.9 °C 73.6 °F /  23.1 °C 83.3 °F /  28.5 °C
Punto de rocio: 72.3 °F /  22.4 °C 60.1 °F /  15.6 °C 68 °F /  20 °C
Humedad: 89% 31.9% 64%
Velocidad viento: 10.7mph /  17.2km/h - 4.6mph /  7.4km/h
Racha viento: 20mph /  32.2km/h - -
Viento- - ESE
Presión: 30 in /  1015.0 hPa 29.8 in /  1010.0 hPa -
Precipitación: 0 in /  0.0 mm    
 
 
Tabla de datos para Abril 17, 2019
Hora Temperatura Punto de rocio Presión Viento Velocidad viento Racha viento Humedad Intensidad lluvia(por hora) Nubes
00:04 77.2 °F /  25.1 °C 72.3 °F /  22.4 °C 30in /  1015.0hPa NNE 6.4mph /  10.3km/h 10mph /  16.1km/h 85% 0in /  0.0mm
00:09 77.2 °F /  25.1 °C 72.3 °F /  22.4 °C 30in /  1015.0hPa NNE 6.3mph /  10.1km/h 9mph /  14.5km/h 85% 0in /  0.0mm
00:14 77 °F /  25 °C 72.1 °F /  22.3 °C 30in /  1015.0hPa NE 5.9mph /  9.5km/h 8mph /  12.9km/h 85% 0in /  0.0mm
00:19 76.8 °F /  24.9 °C 72 °F /  22.2 °C 30in /  1015.0hPa NE 5.7mph /  9.2km/h 8.1mph /  13km/h 85% 0in /  0.0mm
00:24 76.8 °F /  24.9 °C 72 °F /  22.2 °C 30in /  1014.9hPa NE 5.2mph /  8.4km/h 9.2mph /  14.8km/h 85% 0in /  0.0mm
00:29 76.6 °F /  24.8 °C 72.1 °F /  22.3 °C 30in /  1014.9hPa NE 5.4mph /  8.7km/h 9mph /  14.5km/h 85.9% 0in /  0.0mm
00:34 76.6 °F /  24.8 °C 72.1 °F /  22.3 °C 30in /  1014.9hPa NE 5.9mph /  9.5km/h 9mph /  14.5km/h 86% 0in /  0.0mm
00:39 76.6 °F /  24.8 °C 72.1 °F /  22.3 °C 30in /  1014.9hPa NE 5.7mph /  9.2km/h 8.5mph /  13.7km/h 86% 0in /  0.0mm
00:44 76.5 °F /  24.7 °C 72 °F /  22.2 °C 30in /  1014.9hPa NE 5.2mph /  8.4km/h 9mph /  14.5km/h 86% 0in /  0.0mm
00:49 76.5 °F /  24.7 °C 72 °F /  22.2 °C 30in /  1015.0hPa NE 5.3mph /  8.5km/h 9mph /  14.5km/h 86% 0in /  0.0mm
00:54 76.5 °F /  24.7 °C 72.3 °F /  22.4 °C 30in /  1015.0hPa NE 5.4mph /  8.7km/h 9mph /  14.5km/h 86.9% 0in /  0.0mm
00:59 76.5 °F /  24.7 °C 72.3 °F /  22.4 °C 30in /  1015.0hPa NE 5.6mph /  9km/h 9.2mph /  14.8km/h 87% 0in /  0.0mm
01:04 76.5 °F /  24.7 °C 72.3 °F /  22.4 °C 30in /  1015.0hPa NE 5.9mph /  9.5km/h 9mph /  14.5km/h 87% 0in /  0.0mm
01:09 76.5 °F /  24.7 °C 72.3 °F /  22.4 °C 30in /  1014.9hPa NE 5.8mph /  9.3km/h 8.5mph /  13.7km/h 87% 0in /  0.0mm
01:14 76.5 °F /  24.7 °C 72.3 °F /  22.4 °C 30in /  1014.9hPa NE 5.4mph /  8.7km/h 9mph /  14.5km/h 87% 0in /  0.0mm
01:19 76.3 °F /  24.6 °C 72.1 °F /  22.3 °C 30in /  1014.9hPa NE 5.3mph /  8.6km/h 8.1mph /  13km/h 87% 0in /  0.0mm
01:24 76.3 °F /  24.6 °C 72.1 °F /  22.3 °C 30in /  1014.8hPa NE 5.2mph /  8.4km/h 8.1mph /  13km/h 87% 0in /  0.0mm
01:29 76.3 °F /  24.6 °C 72.1 °F /  22.3 °C 30in /  1014.8hPa NE 5mph /  8.1km/h 7mph /  11.3km/h 87% 0in /  0.0mm
01:34 76.3 °F /  24.6 °C 72.1 °F /  22.3 °C 30in /  1014.8hPa NE 4.7mph /  7.6km/h 8.1mph /  13km/h 87.2% 0in /  0.0mm
01:39 76.1 °F /  24.5 °C 72.3 °F /  22.4 °C 30in /  1014.8hPa NE 4.9mph /  7.9km/h 8.5mph /  13.7km/h 88% 0in /  0.0mm
01:44 75.9 °F /  24.4 °C 72.1 °F /  22.3 °C 30in /  1014.8hPa NE 5.4mph /  8.7km/h 9mph /  14.5km/h 88% 0in /  0.0mm
01:49 75.9 °F /  24.4 °C 72.1 °F /  22.3 °C 30in /  1014.8hPa NE 5.3mph /  8.6km/h 8mph /  12.9km/h 88% 0in /  0.0mm
01:54 75.9 °F /  24.4 °C 72.1 °F /  22.3 °C 30in /  1014.8hPa NE 5.2mph /  8.4km/h 7mph /  11.3km/h 88% 0in /  0.0mm
01:59 75.7 °F /  24.3 °C 72 °F /  22.2 °C 30in /  1014.8hPa NE 4.8mph /  7.8km/h 7mph /  11.3km/h 88% 0in /  0.0mm
02:04 75.7 °F /  24.3 °C 72 °F /  22.2 °C 30in /  1014.8hPa NE 4mph /  6.5km/h 7mph /  11.3km/h 88% 0in /  0.0mm
02:09 75.6 °F /  24.2 °C 71.8 °F /  22.1 °C 30in /  1014.6hPa NE 4.1mph /  6.6km/h 7mph /  11.3km/h 88.1% 0in /  0.0mm
02:14 75.6 °F /  24.2 °C 72.1 °F /  22.3 °C 30in /  1014.6hPa NE 4.3mph /  6.9km/h 6.2mph /  10km/h 89% 0in /  0.0mm
02:19 75.6 °F /  24.2 °C 72.1 °F /  22.3 °C 30in /  1014.6hPa NE 4.2mph /  6.8km/h 6.2mph /  10km/h 89% 0in /  0.0mm
02:24 75.6 °F /  24.2 °C 72.1 °F /  22.3 °C 30in /  1014.6hPa NE 4mph /  6.5km/h 6mph /  9.7km/h 89% 0in /  0.0mm
02:29 75.6 °F /  24.2 °C 72.1 °F /  22.3 °C 30in /  1014.6hPa NE 3.9mph /  6.3km/h 6mph /  9.7km/h 89% 0in /  0.0mm
02:34 75.6 °F /  24.2 °C 72.1 °F /  22.3 °C 30in /  1014.6hPa NE 3.6mph /  5.8km/h 6mph /  9.7km/h 89% 0in /  0.0mm
02:39 75.7 °F /  24.3 °C 72.1 °F /  22.3 °C 30in /  1014.6hPa NE 3.3mph /  5.3km/h 5mph /  8km/h 88.5% 0in /  0.0mm
02:44 75.6 °F /  24.2 °C 71.8 °F /  22.1 °C 30in /  1014.6hPa NE 2.4mph /  3.9km/h 6mph /  9.7km/h 88% 0in /  0.0mm
02:49 75.6 °F /  24.2 °C 72 °F /  22.2 °C 30in /  1014.6hPa NE 2.7mph /  4.4km/h 6mph /  9.7km/h 88.5% 0in /  0.0mm
02:54 75.6 °F /  24.2 °C 72.1 °F /  22.3 °C 30in /  1014.5hPa NE 3.6mph /  5.8km/h 6mph /  9.7km/h 89% 0in /  0.0mm
02:59 75.4 °F /  24.1 °C 72 °F /  22.2 °C 30in /  1014.5hPa NE 3.6mph /  5.8km/h 6mph /  9.7km/h 89% 0in /  0.0mm
03:04 75.4 °F /  24.1 °C 72 °F /  22.2 °C 30in /  1014.5hPa NE 3.6mph /  5.8km/h 6mph /  9.7km/h 89% 0in /  0.0mm
03:09 75.4 °F /  24.1 °C 71.8 °F /  22.1 °C 30in /  1014.5hPa ENE 3mph /  4.9km/h 5mph /  8km/h 89% 0in /  0.0mm
03:14 75.4 °F /  24.1 °C 71.8 °F /  22.1 °C 30in /  1014.5hPa NE 1.8mph /  2.9km/h 3mph /  4.8km/h 89% 0in /  0.0mm
03:19 75.4 °F /  24.1 °C 72 °F /  22.2 °C 30in /  1014.5hPa NNE 1.3mph /  2.1km/h 2mph /  3.2km/h 89% 0in /  0.0mm
03:24 75.4 °F /  24.1 °C 71.8 °F /  22.1 °C 30in /  1014.4hPa Calm   4mph /  6.4km/h 89% 0in /  0.0mm
03:29 75.4 °F /  24.1 °C 72 °F /  22.2 °C 30in /  1014.4hPa NNO 0.5mph /  0.8km/h 5mph /  8km/h 89% 0in /  0.0mm
03:34 75.4 °F /  24.1 °C 71.8 °F /  22.1 °C 30in /  1014.4hPa NNO 1.8mph /  2.9km/h 2mph /  3.2km/h 89% 0in /  0.0mm
03:39 75.2 °F /  24 °C 71.6 °F /  22 °C 30in /  1014.3hPa NNO 1.3mph /  2.1km/h   88.4% 0in /  0.0mm
03:44 75 °F /  23.9 °C 71.4 °F /  21.9 °C 30in /  1014.3hPa Calm     88.2% 0in /  0.0mm
03:49 75 °F /  23.9 °C 71.2 °F /  21.8 °C 30in /  1014.3hPa Calm   2.3mph /  3.7km/h 88% 0in /  0.0mm
03:54 75 °F /  23.9 °C 71.2 °F /  21.8 °C 30in /  1014.2hPa Calm   2.9mph /  4.7km/h 88% 0in /  0.0mm
03:59 75 °F /  23.9 °C 71.2 °F /  21.8 °C 30in /  1014.2hPa Calm   3mph /  4.8km/h 88% 0in /  0.0mm
04:04 74.8 °F /  23.8 °C 71.1 °F /  21.7 °C 30in /  1014.2hPa Calm     88% 0in /  0.0mm
04:09 74.8 °F /  23.8 °C 71.1 °F /  21.7 °C 30in /  1014.2hPa Calm     88% 0in /  0.0mm
04:14 74.8 °F /  23.8 °C 71.1 °F /  21.7 °C 30in /  1014.2hPa Calm   2.9mph /  4.7km/h 88% 0in /  0.0mm
04:19 74.8 °F /  23.8 °C 71.1 °F /  21.7 °C 30in /  1014.2hPa Calm   3mph /  4.8km/h 88% 0in /  0.0mm
04:24 74.7 °F /  23.7 °C 70.9 °F /  21.6 °C 29.9in /  1014.1hPa Calm   2mph /  3.2km/h 88% 0in /  0.0mm
04:29 74.7 °F /  23.7 °C 70.9 °F /  21.6 °C 29.9in /  1014.1hPa Calm     88% 0in /  0.0mm
04:34 74.8 °F /  23.8 °C 71.1 °F /  21.7 °C 29.9in /  1014.1hPa Calm     88% 0in /  0.0mm
04:39 74.8 °F /  23.8 °C 70.7 °F /  21.5 °C 29.9in /  1013.9hPa Calm     87.5% 0in /  0.0mm
04:44 74.7 °F /  23.7 °C 70.5 °F /  21.4 °C 29.9in /  1013.9hPa Calm   3.6mph /  5.8km/h 87% 0in /  0.0mm
04:49 74.5 °F /  23.6 °C 70.2 °F /  21.2 °C 29.9in /  1013.9hPa SE 0.5mph /  0.8km/h 4.6mph /  7.4km/h 86.4% 0in /  0.0mm
04:54 74.5 °F /  23.6 °C 70 °F /  21.1 °C 29.9in /  1013.8hPa SE 1.8mph /  2.9km/h 5mph /  8km/h 86% 0in /  0.0mm
04:59 74.3 °F /  23.5 °C 70.2 °F /  21.2 °C 29.9in /  1013.8hPa ESE 1.8mph /  2.9km/h 4mph /  6.4km/h 86.6% 0in /  0.0mm
05:04 74.5 °F /  23.6 °C 70.3 °F /  21.3 °C 29.9in /  1013.8hPa ESE 1.8mph /  2.9km/h 2mph /  3.2km/h 87% 0in /  0.0mm
05:09 74.5 °F /  23.6 °C 70.3 °F /  21.3 °C 29.9in /  1013.7hPa ESE 1.2mph /  2km/h 2.3mph /  3.7km/h 87% 0in /  0.0mm
05:14 74.5 °F /  23.6 °C 70.2 °F /  21.2 °C 29.9in /  1013.7hPa Calm   2mph /  3.2km/h 86.4% 0in /  0.0mm
05:19 74.5 °F /  23.6 °C 70 °F /  21.1 °C 29.9in /  1013.7hPa Calm     86% 0in /  0.0mm
05:24 74.1 °F /  23.4 °C 69.8 °F /  21 °C 29.9in /  1013.7hPa Calm     86% 0in /  0.0mm
05:29 74.1 °F /  23.4 °C 69.6 °F /  20.9 °C 29.9in /  1013.7hPa Calm     86% 0in /  0.0mm
05:34 73.9 °F /  23.3 °C 69.4 °F /  20.8 °C 29.9in /  1013.7hPa Calm   3.1mph /  5km/h 86% 0in /  0.0mm
05:39 73.9 °F /  23.3 °C 69.4 °F /  20.8 °C 29.9in /  1013.7hPa NO 0.4mph /  0.6km/h 3.5mph /  5.6km/h 86% 0in /  0.0mm
05:44 73.9 °F /  23.3 °C 69.6 °F /  20.9 °C 29.9in /  1013.7hPa NO 1.4mph /  2.2km/h 2mph /  3.2km/h 86.9% 0in /  0.0mm
05:49 73.8 °F /  23.2 °C 69.6 °F /  20.9 °C 29.9in /  1013.7hPa NO 1mph /  1.6km/h   87% 0in /  0.0mm
05:54 73.8 °F /  23.2 °C 69.6 °F /  20.9 °C 29.9in /  1013.6hPa Calm     87% 0in /  0.0mm
05:59 73.8 °F /  23.2 °C 69.6 °F /  20.9 °C 29.9in /  1013.6hPa Calm     87% 0in /  0.0mm
06:04 73.8 °F /  23.2 °C 69.6 °F /  20.9 °C 29.9in /  1013.7hPa Calm     87% 0in /  0.0mm
06:09 73.6 °F /  23.1 °C 69.4 °F /  20.8 °C 29.9in /  1013.7hPa Calm     87% 0in /  0.0mm
06:14 73.8 °F /  23.2 °C 70 °F /  21.1 °C 29.9in /  1013.7hPa Calm     87.9% 0in /  0.0mm
06:19 73.8 °F /  23.2 °C 69.6 °F /  20.9 °C 29.9in /  1013.7hPa Calm     87% 0in /  0.0mm
06:24 73.6 °F /  23.1 °C 69.4 °F /  20.8 °C 29.9in /  1013.6hPa Calm     87% 0in /  0.0mm
06:29 73.6 °F /  23.1 °C 69.4 °F /  20.8 °C 29.9in /  1013.6hPa Calm     87% 0in /  0.0mm
06:34 73.6 °F /  23.1 °C 69.8 °F /  21 °C 29.9in /  1013.7hPa Calm     87.9% 0in /  0.0mm
06:39 73.8 °F /  23.2 °C 69.8 °F /  21 °C 29.9in /  1013.7hPa Calm     87.7% 0in /  0.0mm
06:44 73.8 °F /  23.2 °C 69.8 °F /  21 °C 29.9in /  1013.7hPa Calm     87.5% 0in /  0.0mm
06:49 73.8 °F /  23.2 °C 70 °F /  21.1 °C 29.9in /  1013.8hPa Calm     88.1% 0in /  0.0mm
06:54 73.9 °F /  23.3 °C 70.5 °F /  21.4 °C 29.9in /  1013.8hPa Calm     89% 0in /  0.0mm
06:59 73.9 °F /  23.3 °C 70.5 °F /  21.4 °C 29.9in /  1013.8hPa Calm     89% 0in /  0.0mm
07:04 73.9 °F /  23.3 °C 70.3 °F /  21.3 °C 29.9in /  1013.9hPa Calm     88.6% 0in /  0.0mm
07:09 73.9 °F /  23.3 °C 70 °F /  21.1 °C 29.9in /  1013.9hPa Calm     87.6% 0in /  0.0mm
07:14 73.8 °F /  23.2 °C 69.6 °F /  20.9 °C 29.9in /  1013.9hPa Calm     87% 0in /  0.0mm
07:19 73.8 °F /  23.2 °C 69.6 °F /  20.9 °C 29.9in /  1014.0hPa Calm     87% 0in /  0.0mm
07:24 73.8 °F /  23.2 °C 69.6 °F /  20.9 °C 29.9in /  1014.0hPa Calm     87% 0in /  0.0mm
07:29 73.9 °F /  23.3 °C 69.8 °F /  21 °C 29.9in /  1014.0hPa Calm     87% 0in /  0.0mm
07:34 73.9 °F /  23.3 °C 69.8 °F /  21 °C 29.9in /  1014.0hPa Calm     87% 0in /  0.0mm
07:39 73.9 °F /  23.3 °C 69.8 °F /  21 °C 29.9in /  1014.0hPa Calm     87% 0in /  0.0mm
07:44 74.1 °F /  23.4 °C 70.2 °F /  21.2 °C 29.9in /  1014.0hPa Calm     87.8% 0in /  0.0mm
07:49 74.1 °F /  23.4 °C 70.3 °F /  21.3 °C 29.9in /  1014.1hPa Calm   3.5mph /  5.6km/h 88% 0in /  0.0mm
07:54 74.3 °F /  23.5 °C 70.5 °F /  21.4 °C 29.9in /  1014.1hPa Calm   3mph /  4.8km/h 88% 0in /  0.0mm
07:59 74.1 °F /  23.4 °C 70.3 °F /  21.3 °C 29.9in /  1014.1hPa NO 0.4mph /  0.7km/h 3mph /  4.8km/h 88% 0in /  0.0mm
08:04 74.1 °F /  23.4 °C 70.5 °F /  21.4 °C 30in /  1014.2hPa NO 1.4mph /  2.2km/h 3mph /  4.8km/h 88.3% 0in /  0.0mm
08:09 74.1 °F /  23.4 °C 70.7 °F /  21.5 °C 30in /  1014.2hPa NNO 1mph /  1.6km/h   88.8% 0in /  0.0mm
08:14 74.3 °F /  23.5 °C 70.9 °F /  21.6 °C 30in /  1014.2hPa Calm     88.8% 0in /  0.0mm
08:19 74.5 °F /  23.6 °C 71.1 °F /  21.7 °C 30in /  1014.2hPa Calm   2.9mph /  4.7km/h 89% 0in /  0.0mm
08:24 74.7 °F /  23.7 °C 71.1 °F /  21.7 °C 30in /  1014.2hPa Calm   3mph /  4.8km/h 89% 0in /  0.0mm
08:29 74.8 °F /  23.8 °C 71.1 °F /  21.7 °C 30in /  1014.2hPa Calm   3mph /  4.8km/h 88.4% 0in /  0.0mm
08:34 75 °F /  23.9 °C 71.2 °F /  21.8 °C 30in /  1014.4hPa Calm   3.6mph /  5.8km/h 88% 0in /  0.0mm
08:39 75.2 °F /  24 °C 71.2 °F /  21.8 °C 30in /  1014.4hPa Oeste 0.5mph /  0.8km/h 4.7mph /  7.6km/h 87.7% 0in /  0.0mm
08:44 75.6 °F /  24.2 °C 71.2 °F /  21.8 °C 30in /  1014.4hPa OSO 1.8mph /  2.9km/h 5.9mph /  9.5km/h 86.9% 0in /  0.0mm
08:49 75.7 °F /  24.3 °C 71.4 °F /  21.9 °C 30in /  1014.5hPa OSO 2.2mph /  3.5km/h 7.4mph /  11.9km/h 86% 0in /  0.0mm
08:54 75.9 °F /  24.4 °C 71.2 °F /  21.8 °C 30in /  1014.5hPa OSO 3.1mph /  5km/h 7mph /  11.3km/h 85.1% 0in /  0.0mm
08:59 76.1 °F /  24.5 °C 71.1 °F /  21.7 °C 30in /  1014.5hPa OSO 3.6mph /  5.8km/h 8.1mph /  13km/h 84.3% 0in /  0.0mm
09:04 76.1 °F /  24.5 °C 70.9 °F /  21.6 °C 30in /  1014.5hPa OSO 4.7mph /  7.6km/h 8mph /  12.9km/h 84.2% 0in /  0.0mm
09:09 76.3 °F /  24.6 °C 71.2 °F /  21.8 °C 30in /  1014.5hPa SO 4.5mph /  7.2km/h 7mph /  11.3km/h 84.7% 0in /  0.0mm
09:14 76.3 °F /  24.6 °C 71.2 °F /  21.8 °C 30in /  1014.5hPa OSO 4mph /  6.5km/h 8.1mph /  13km/h 84% 0in /  0.0mm
09:19 76.5 °F /  24.7 °C 71.2 °F /  21.8 °C 30in /  1014.6hPa OSO 4.1mph /  6.6km/h 8mph /  12.9km/h 84% 0in /  0.0mm
09:24 76.5 °F /  24.7 °C 71.2 °F /  21.8 °C 30in /  1014.6hPa OSO 4.3mph /  6.9km/h 7mph /  11.3km/h 84% 0in /  0.0mm
09:29 76.6 °F /  24.8 °C 71.4 °F /  21.9 °C 30in /  1014.6hPa SO 4.3mph /  6.9km/h 7mph /  11.3km/h 84% 0in /  0.0mm
09:34 76.6 °F /  24.8 °C 71.4 °F /  21.9 °C 30in /  1014.7hPa SSO 4.3mph /  6.9km/h 7mph /  11.3km/h 83.6% 0in /  0.0mm
09:39 77 °F /  25 °C 71.4 °F /  21.9 °C 30in /  1014.7hPa SO 4mph /  6.4km/h 6.2mph /  10km/h 82.7% 0in /  0.0mm
09:44 77.4 °F /  25.2 °C 71.4 °F /  21.9 °C 30in /  1014.7hPa SSO 3.1mph /  5km/h 7.4mph /  11.9km/h 82% 0in /  0.0mm
09:49 77.4 °F /  25.2 °C 71.4 °F /  21.9 °C 30in /  1014.8hPa SSO 3.4mph /  5.4km/h 7mph /  11.3km/h 82% 0in /  0.0mm
09:54 77.5 °F /  25.3 °C 71.2 °F /  21.8 °C 30in /  1014.8hPa Sur 4mph /  6.5km/h 7.6mph /  12.2km/h 81.3% 0in /  0.0mm
09:59 77.5 °F /  25.3 °C 71.2 °F /  21.8 °C 30in /  1014.8hPa SSO 4.1mph /  6.6km/h 8.1mph /  13km/h 80.7% 0in /  0.0mm
10:04 77.5 °F /  25.3 °C 71.1 °F /  21.7 °C 30in /  1014.8hPa SSO 4.3mph /  6.9km/h 8mph /  12.9km/h 80.3% 0in /  0.0mm
10:09 77.7 °F /  25.4 °C 71.2 °F /  21.8 °C 30in /  1014.8hPa SSO 4.2mph /  6.8km/h 7mph /  11.3km/h 80.5% 0in /  0.0mm
10:14 78.1 °F /  25.6 °C 71.2 °F /  21.8 °C 30in /  1014.8hPa SSO 4mph /  6.5km/h 6.2mph /  10km/h 79.6% 0in /  0.0mm
10:19 78.4 °F /  25.8 °C 71.1 °F /  21.7 °C 30in /  1014.8hPa SSO 3.9mph /  6.3km/h 6.2mph /  10km/h 78.4% 0in /  0.0mm
10:24 78.6 °F /  25.9 °C 71.2 °F /  21.8 °C 30in /  1014.6hPa Sur 3.6mph /  5.8km/h 6mph /  9.7km/h 78% 0in /  0.0mm
10:29 79.2 °F /  26.2 °C 71.2 °F /  21.8 °C 30in /  1014.6hPa SSO 3.4mph /  5.5km/h 5.9mph /  9.5km/h 76.8% 0in /  0.0mm
10:34 79.3 °F /  26.3 °C 71.1 °F /  21.7 °C 30in /  1014.6hPa Sur 2.9mph /  4.7km/h 6mph /  9.7km/h 75.9% 0in /  0.0mm
10:39 79.7 °F /  26.5 °C 71.1 °F /  21.7 °C 30in /  1014.5hPa SSO 2.9mph /  4.7km/h 5.2mph /  8.4km/h 74.6% 0in /  0.0mm
10:44 80.1 °F /  26.7 °C 70.9 °F /  21.6 °C 30in /  1014.5hPa NO 2.9mph /  4.7km/h 5mph /  8km/h 73.8% 0in /  0.0mm
10:49 80.4 °F /  26.9 °C 71.1 °F /  21.7 °C 30in /  1014.5hPa NO 2.6mph /  4.2km/h 5mph /  8km/h 73% 0in /  0.0mm
10:54 81 °F /  27.2 °C 71.1 °F /  21.7 °C 30in /  1014.5hPa NO 2mph /  3.2km/h 8.1mph /  13km/h 72% 0in /  0.0mm
10:59 81.1 °F /  27.3 °C 70.7 °F /  21.5 °C 30in /  1014.5hPa ONO 2.1mph /  3.4km/h 8mph /  12.9km/h 70.5% 0in /  0.0mm
11:04 81.3 °F /  27.4 °C 70.2 °F /  21.2 °C 30in /  1014.5hPa NNO 2.4mph /  3.9km/h 6mph /  9.7km/h 69% 0in /  0.0mm
11:09 81.7 °F /  27.6 °C 70.2 °F /  21.2 °C 30in /  1014.5hPa SSE 2.4mph /  3.9km/h 5mph /  8km/h 68.1% 0in /  0.0mm
11:14 82 °F /  27.8 °C 69.6 °F /  20.9 °C 30in /  1014.5hPa ESE 2.4mph /  3.9km/h 5mph /  8km/h 66.2% 0in /  0.0mm
11:19 82.8 °F /  28.2 °C 69.3 °F /  20.7 °C 30in /  1014.5hPa ONO 2.5mph /  4.1km/h 5.8mph /  9.3km/h 64.1% 0in /  0.0mm
11:24 82.8 °F /  28.2 °C 68.7 °F /  20.4 °C 30in /  1014.4hPa NO 2.9mph /  4.7km/h 6mph /  9.7km/h 62.4% 0in /  0.0mm
11:29 83.5 °F /  28.6 °C 68.5 °F /  20.3 °C 30in /  1014.4hPa NNO 2.6mph /  4.2km/h 4.6mph /  7.4km/h 60.9% 0in /  0.0mm
11:34 84.2 °F /  29 °C 68.9 °F /  20.5 °C 30in /  1014.4hPa ONO 1.8mph /  2.9km/h 5mph /  8km/h 60% 0in /  0.0mm
11:39 85.1 °F /  29.5 °C 67.6 °F /  19.8 °C 30in /  1014.4hPa Sur 1.9mph /  3km/h 5.4mph /  8.7km/h 56.1% 0in /  0.0mm
11:44 85.5 °F /  29.7 °C 65.8 °F /  18.8 °C 30in /  1014.4hPa NNO 2mph /  3.2km/h 6mph /  9.7km/h 52% 0in /  0.0mm
11:49 85.8 °F /  29.9 °C 65.1 °F /  18.4 °C 30in /  1014.4hPa NE 2.2mph /  3.6km/h 8.1mph /  13km/h 50% 0in /  0.0mm
11:54 86.4 °F /  30.2 °C 64.8 °F /  18.2 °C 30in /  1014.3hPa NNE 2.9mph /  4.7km/h 8mph /  12.9km/h 48.7% 0in /  0.0mm
11:59 86.5 °F /  30.3 °C 64.6 °F /  18.1 °C 30in /  1014.3hPa ENE 3.2mph /  5.2km/h 8.1mph /  13km/h 48% 0in /  0.0mm
12:04 86.5 °F /  30.3 °C 65.1 °F /  18.4 °C 30in /  1014.3hPa NE 4mph /  6.5km/h 8mph /  12.9km/h 48.9% 0in /  0.0mm
12:09 86.9 °F /  30.5 °C 65.7 °F /  18.7 °C 30in /  1014.2hPa NE 3.6mph /  5.8km/h 7mph /  11.3km/h 49.3% 0in /  0.0mm
12:14 87.4 °F /  30.8 °C 66.6 °F /  19.2 °C 30in /  1014.2hPa NE 2.4mph /  3.9km/h 10.4mph /  16.7km/h 49.9% 0in /  0.0mm
12:19 87.4 °F /  30.8 °C 66 °F /  18.9 °C 30in /  1014.2hPa NE 3mph /  4.9km/h 10mph /  16.1km/h 49.3% 0in /  0.0mm
12:24 87.4 °F /  30.8 °C 66 °F /  18.9 °C 29.9in /  1014.1hPa NE 4.7mph /  7.6km/h 10.4mph /  16.7km/h 49.1% 0in /  0.0mm
12:29 87.8 °F /  31 °C 66.9 °F /  19.4 °C 29.9in /  1014.1hPa NNE 4.6mph /  7.4km/h 10mph /  16.1km/h 50.2% 0in /  0.0mm
12:34 88 °F /  31.1 °C 66.9 °F /  19.4 °C 29.9in /  1014.1hPa North 4.3mph /  6.9km/h 10.7mph /  17.2km/h 49.7% 0in /  0.0mm
12:39 88.2 °F /  31.2 °C 66.9 °F /  19.4 °C 29.9in /  1013.8hPa NNE 4.4mph /  7.1km/h 11mph /  17.7km/h 49.5% 0in /  0.0mm
12:44 88.3 °F /  31.3 °C 66.7 °F /  19.3 °C 29.9in /  1013.8hPa NNE 4.7mph /  7.6km/h 11mph /  17.7km/h 49% 0in /  0.0mm
12:49 88.5 °F /  31.4 °C 66.6 °F /  19.2 °C 29.9in /  1013.8hPa North 4.9mph /  7.9km/h 9.2mph /  14.8km/h 48.5% 0in /  0.0mm
12:54 89.1 °F /  31.7 °C 66.2 °F /  19 °C 29.9in /  1013.7hPa ENE 5.4mph /  8.7km/h 9mph /  14.5km/h 47% 0in /  0.0mm
12:59 89.8 °F /  32.1 °C 65.7 °F /  18.7 °C 29.9in /  1013.7hPa NE 5mph /  8.1km/h 9.2mph /  14.8km/h 45.3% 0in /  0.0mm
13:04 90.3 °F /  32.4 °C 64.4 °F /  18 °C 29.9in /  1013.7hPa NNE 4.3mph /  6.9km/h 9.2mph /  14.8km/h 42.5% 0in /  0.0mm
13:09 90.7 °F /  32.6 °C 64.8 °F /  18.2 °C 29.9in /  1013.5hPa NNE 4.7mph /  7.5km/h 10.4mph /  16.7km/h 42.5% 0in /  0.0mm
13:14 91 °F /  32.8 °C 64.9 °F /  18.3 °C 29.9in /  1013.5hPa NE 5.4mph /  8.7km/h 10mph /  16.1km/h 42.2% 0in /  0.0mm
13:19 91.6 °F /  33.1 °C 65.3 °F /  18.5 °C 29.9in /  1013.5hPa NE 5mph /  8.1km/h 9.2mph /  14.8km/h 42% 0in /  0.0mm
13:24 91.9 °F /  33.3 °C 63.7 °F /  17.6 °C 29.9in /  1013.3hPa Este 4mph /  6.5km/h 10.4mph /  16.7km/h 39.3% 0in /  0.0mm
13:29 92.7 °F /  33.7 °C 63.1 °F /  17.3 °C 29.9in /  1013.3hPa ENE 4.3mph /  7km/h 10.4mph /  16.7km/h 37.7% 0in /  0.0mm
13:34 92.8 °F /  33.8 °C 60.6 °F /  15.9 °C 29.9in /  1013.3hPa ESE 5.2mph /  8.4km/h 10.4mph /  16.7km/h 34.4% 0in /  0.0mm
13:39 93.6 °F /  34.2 °C 62.6 °F /  17 °C 29.9in /  1013.1hPa ENE 5.2mph /  8.4km/h 10mph /  16.1km/h 36.1% 0in /  0.0mm
13:44 93.7 °F /  34.3 °C 61 °F /  16.1 °C 29.9in /  1013.1hPa ENE 5.4mph /  8.7km/h 9mph /  14.5km/h 33.8% 0in /  0.0mm
13:49 93.9 °F /  34.4 °C 60.3 °F /  15.7 °C 29.9in /  1013.1hPa ENE 5.2mph /  8.4km/h 8mph /  12.9km/h 32.8% 0in /  0.0mm
13:54 94.3 °F /  34.6 °C 60.3 °F /  15.7 °C 29.9in /  1013.0hPa ENE 4.7mph /  7.6km/h 9.2mph /  14.8km/h 32.4% 0in /  0.0mm
13:59 94.5 °F /  34.7 °C 60.4 °F /  15.8 °C 29.9in /  1013.0hPa NE 5.1mph /  8.2km/h 9.2mph /  14.8km/h 32.5% 0in /  0.0mm
14:04 94.5 °F /  34.7 °C 60.3 °F /  15.7 °C 29.9in /  1013.0hPa Este 5.9mph /  9.5km/h 13.5mph /  21.7km/h 32.1% 0in /  0.0mm
14:09 94.5 °F /  34.7 °C 60.1 °F /  15.6 °C 29.9in /  1012.8hPa Este 5.9mph /  9.5km/h 14mph /  22.5km/h 31.9% 0in /  0.0mm
14:14 94.5 °F /  34.7 °C 60.1 °F /  15.6 °C 29.9in /  1012.8hPa Este 5.9mph /  9.5km/h 13mph /  20.9km/h 32.1% 0in /  0.0mm
14:19 94.6 °F /  34.8 °C 61 °F /  16.1 °C 29.9in /  1012.8hPa ESE 6mph /  9.7km/h 13.8mph /  22.2km/h 33% 0in /  0.0mm
14:24 94.6 °F /  34.8 °C 61.3 °F /  16.3 °C 29.9in /  1012.7hPa Este 6.4mph /  10.3km/h 14mph /  22.5km/h 33.3% 0in /  0.0mm
14:29 94.6 °F /  34.8 °C 61.3 °F /  16.3 °C 29.9in /  1012.7hPa ENE 6.3mph /  10.2km/h 12mph /  19.3km/h 33.3% 0in /  0.0mm
14:34 95 °F /  35 °C 62.2 °F /  16.8 °C 29.9in /  1012.7hPa ESE 6.2mph /  10km/h 13mph /  20.9km/h 34.1% 0in /  0.0mm
14:39 95 °F /  35 °C 62.2 °F /  16.8 °C 29.9in /  1012.6hPa ENE 6.1mph /  9.8km/h 13mph /  20.9km/h 34.2% 0in /  0.0mm
14:44 95.2 °F /  35.1 °C 62.6 °F /  17 °C 29.9in /  1012.6hPa ENE 5.9mph /  9.5km/h 15mph /  24.1km/h 34.4% 0in /  0.0mm
14:49 95.4 °F /  35.2 °C 63.5 °F /  17.5 °C 29.9in /  1012.6hPa Este 5.9mph /  9.5km/h 15mph /  24.1km/h 35% 0in /  0.0mm
14:54 95.7 °F /  35.4 °C 63.5 °F /  17.5 °C 29.9in /  1012.3hPa Este 5.9mph /  9.5km/h 10.4mph /  16.7km/h 34.8% 0in /  0.0mm
14:59 96.1 °F /  35.6 °C 63.1 °F /  17.3 °C 29.9in /  1012.3hPa Este 5.8mph /  9.3km/h 10mph /  16.1km/h 34.2% 0in /  0.0mm
15:04 96.3 °F /  35.7 °C 63 °F /  17.2 °C 29.9in /  1012.3hPa NE 5.4mph /  8.7km/h 10.7mph /  17.2km/h 33.6% 0in /  0.0mm
15:09 96.1 °F /  35.6 °C 63.5 °F /  17.5 °C 29.9in /  1012.2hPa Este 5.2mph /  8.4km/h 11mph /  17.7km/h 34.3% 0in /  0.0mm
15:14 96.3 °F /  35.7 °C 63.3 °F /  17.4 °C 29.9in /  1012.2hPa Este 4.7mph /  7.6km/h 10mph /  16.1km/h 34% 0in /  0.0mm
15:19 96.3 °F /  35.7 °C 63.7 °F /  17.6 °C 29.9in /  1012.2hPa NNE 4.6mph /  7.4km/h 9.2mph /  14.8km/h 34.5% 0in /  0.0mm
15:24 96.4 °F /  35.8 °C 64.8 °F /  18.2 °C 29.9in /  1012.0hPa SE 4.3mph /  6.9km/h 13.8mph /  22.2km/h 35.5% 0in /  0.0mm
15:29 96.3 °F /  35.7 °C 64.6 °F /  18.1 °C 29.9in /  1012.0hPa SE 4.7mph /  7.6km/h 14mph /  22.5km/h 35.5% 0in /  0.0mm
15:34 96.3 °F /  35.7 °C 64.4 °F /  18 °C 29.9in /  1012.0hPa ESE 5.9mph /  9.5km/h 12mph /  19.3km/h 35.2% 0in /  0.0mm
15:39 96.3 °F /  35.7 °C 64.9 °F /  18.3 °C 29.9in /  1011.8hPa SE 5.7mph /  9.2km/h 13mph /  20.9km/h 35.9% 0in /  0.0mm
15:44 96.4 °F /  35.8 °C 65.5 °F /  18.6 °C 29.9in /  1011.8hPa ESE 5.2mph /  8.4km/h 13mph /  20.9km/h 36.3% 0in /  0.0mm
15:49 96.4 °F /  35.8 °C 65.5 °F /  18.6 °C 29.9in /  1011.8hPa SE 5.8mph /  9.4km/h 13.8mph /  22.2km/h 36.5% 0in /  0.0mm
15:54 96.3 °F /  35.7 °C 65.7 °F /  18.7 °C 29.9in /  1011.6hPa SE 7.4mph /  11.9km/h 14mph /  22.5km/h 36.8% 0in /  0.0mm
15:59 96.3 °F /  35.7 °C 65.8 °F /  18.8 °C 29.9in /  1011.6hPa ESE 8mph /  12.8km/h 16.1mph /  25.9km/h 37% 0in /  0.0mm
16:04 96.3 °F /  35.7 °C 65.7 °F /  18.7 °C 29.9in /  1011.6hPa SE 9.2mph /  14.8km/h 16mph /  25.7km/h 36.8% 0in /  0.0mm
16:09 96.3 °F /  35.7 °C 65.3 °F /  18.5 °C 29.9in /  1011.4hPa ESE 8.9mph /  14.3km/h 15mph /  24.1km/h 36.2% 0in /  0.0mm
16:14 96.3 °F /  35.7 °C 65.8 °F /  18.8 °C 29.9in /  1011.4hPa SE 8.1mph /  13km/h 14.7mph /  23.7km/h 37% 0in /  0.0mm
16:19 96.3 °F /  35.7 °C 65.3 °F /  18.5 °C 29.9in /  1011.4hPa ESE 8.4mph /  13.5km/h 15mph /  24.1km/h 36.4% 0in /  0.0mm
16:24 96.3 °F /  35.7 °C 65.3 °F /  18.5 °C 29.9in /  1011.3hPa SE 9.2mph /  14.8km/h 13.8mph /  22.2km/h 36.4% 0in /  0.0mm
16:29 96.6 °F /  35.9 °C 66.4 °F /  19.1 °C 29.9in /  1011.3hPa ESE 8.8mph /  14.1km/h 16.1mph /  25.9km/h 37.5% 0in /  0.0mm
16:34 96.6 °F /  35.9 °C 66.4 °F /  19.1 °C 29.9in /  1011.3hPa SE 7.6mph /  12.2km/h 16mph /  25.7km/h 37.5% 0in /  0.0mm
16:39 96.4 °F /  35.8 °C 66.9 °F /  19.4 °C 29.9in /  1011.1hPa ESE 7.8mph /  12.6km/h 17.5mph /  28.2km/h 38.5% 0in /  0.0mm
16:44 96.3 °F /  35.7 °C 67.1 °F /  19.5 °C 29.9in /  1011.1hPa SE 8.5mph /  13.7km/h 17mph /  27.4km/h 38.8% 0in /  0.0mm
16:49 96.4 °F /  35.8 °C 68.4 °F /  20.2 °C 29.9in /  1011.1hPa SE 8.5mph /  13.7km/h 15.6mph /  25.1km/h 40.1% 0in /  0.0mm
16:54 96.4 °F /  35.8 °C 68.4 °F /  20.2 °C 29.9in /  1011.0hPa ESE 8.5mph /  13.7km/h 16.1mph /  25.9km/h 40.3% 0in /  0.0mm
16:59 96.1 °F /  35.6 °C 68.7 °F /  20.4 °C 29.9in /  1011.0hPa ESE 9mph /  14.5km/h 18.4mph /  29.6km/h 41.2% 0in /  0.0mm
17:04 95.9 °F /  35.5 °C 68.7 °F /  20.4 °C 29.9in /  1011.0hPa SE 10.2mph /  16.4km/h 18mph /  29km/h 41.4% 0in /  0.0mm
17:09 95.9 °F /  35.5 °C 68.7 °F /  20.4 °C 29.9in /  1010.8hPa SE 10.1mph /  16.2km/h 17.3mph /  27.8km/h 41.6% 0in /  0.0mm
17:14 95.5 °F /  35.3 °C 69.3 °F /  20.7 °C 29.9in /  1010.8hPa ESE 9.7mph /  15.6km/h 17mph /  27.4km/h 42.7% 0in /  0.0mm
17:19 95.5 °F /  35.3 °C 69.4 °F /  20.8 °C 29.9in /  1010.8hPa ESE 9.7mph /  15.6km/h 18.5mph /  29.8km/h 43% 0in /  0.0mm
17:24 95 °F /  35 °C 68.9 °F /  20.5 °C 29.9in /  1010.8hPa ESE 9.7mph /  15.6km/h 19mph /  30.6km/h 43% 0in /  0.0mm
17:29 94.8 °F /  34.9 °C 68.7 °F /  20.4 °C 29.9in /  1010.8hPa ESE 9.9mph /  16km/h 19mph /  30.6km/h 42.8% 0in /  0.0mm
17:34 94.6 °F /  34.8 °C 68.2 °F /  20.1 °C 29.9in /  1010.8hPa ESE 10.7mph /  17.2km/h 17.3mph /  27.8km/h 42.3% 0in /  0.0mm
17:39 94.5 °F /  34.7 °C 67.3 °F /  19.6 °C 29.9in /  1010.8hPa ESE 10.7mph /  17.2km/h 17.3mph /  27.8km/h 41.3% 0in /  0.0mm
17:44 94.6 °F /  34.8 °C 67.1 °F /  19.5 °C 29.9in /  1010.8hPa ESE 10.7mph /  17.2km/h 17mph /  27.4km/h 40.7% 0in /  0.0mm
17:49 95 °F /  35 °C 66.7 °F /  19.3 °C 29.9in /  1010.8hPa ESE 9.8mph /  15.7km/h 14mph /  22.5km/h 39.7% 0in /  0.0mm
17:54 95.2 °F /  35.1 °C 66.2 °F /  19 °C 29.8in /  1010.7hPa Este 7.6mph /  12.2km/h 13mph /  20.9km/h 38.8% 0in /  0.0mm
17:59 95.2 °F /  35.1 °C 65.7 °F /  18.7 °C 29.8in /  1010.7hPa ESE 7.8mph /  12.5km/h 14.7mph /  23.7km/h 38.1% 0in /  0.0mm
18:04 95 °F /  35 °C 64.9 °F /  18.3 °C 29.8in /  1010.7hPa ESE 8.1mph /  13km/h 15.2mph /  24.5km/h 37.3% 0in /  0.0mm
18:09 94.6 °F /  34.8 °C 64.8 °F /  18.2 °C 29.8in /  1010.7hPa ESE 8.6mph /  13.9km/h 15mph /  24.1km/h 37.4% 0in /  0.0mm
18:14 94.6 °F /  34.8 °C 65.1 °F /  18.4 °C 29.8in /  1010.7hPa ESE 10mph /  16.1km/h 17.5mph /  28.2km/h 38% 0in /  0.0mm
18:19 94.5 °F /  34.7 °C 64.9 °F /  18.3 °C 29.8in /  1010.7hPa ESE 10.1mph /  16.2km/h 17mph /  27.4km/h 38% 0in /  0.0mm
18:24 94.5 °F /  34.7 °C 64.9 °F /  18.3 °C 29.8in /  1010.4hPa ESE 10.2mph /  16.4km/h 16.3mph /  26.2km/h 38% 0in /  0.0mm
18:29 94.3 °F /  34.6 °C 64.8 °F /  18.2 °C 29.8in /  1010.4hPa ESE 10.1mph /  16.2km/h 16mph /  25.7km/h 37.9% 0in /  0.0mm
18:34 94.5 °F /  34.7 °C 64.2 °F /  17.9 °C 29.8in /  1010.5hPa ESE 9.7mph /  15.6km/h 15mph /  24.1km/h 37.1% 0in /  0.0mm
18:39 94.3 °F /  34.6 °C 64.8 °F /  18.2 °C 29.8in /  1010.5hPa ESE 9.7mph /  15.6km/h 15mph /  24.1km/h 38% 0in /  0.0mm
18:44 94.1 °F /  34.5 °C 63.9 °F /  17.7 °C 29.8in /  1010.5hPa SE 9.7mph /  15.6km/h 15.2mph /  24.5km/h 37% 0in /  0.0mm
18:49 94.3 °F /  34.6 °C 64 °F /  17.8 °C 29.8in /  1010.5hPa ESE 9.4mph /  15.2km/h 15mph /  24.1km/h 37.1% 0in /  0.0mm
18:54 94.5 °F /  34.7 °C 64.2 °F /  17.9 °C 29.8in /  1010.2hPa ESE 8.7mph /  14km/h 14mph /  22.5km/h 37% 0in /  0.0mm
18:59 94.3 °F /  34.6 °C 64.2 °F /  17.9 °C 29.8in /  1010.2hPa ESE 8mph /  12.9km/h 13mph /  20.9km/h 37.3% 0in /  0.0mm
19:04 94.1 °F /  34.5 °C 64.6 °F /  18.1 °C 29.8in /  1010.2hPa ESE 6.4mph /  10.3km/h 14mph /  22.5km/h 37.9% 0in /  0.0mm
19:09 93.7 °F /  34.3 °C 64.4 °F /  18 °C 29.8in /  1010.2hPa ESE 7mph /  11.3km/h 15mph /  24.1km/h 38.2% 0in /  0.0mm
19:14 93.6 °F /  34.2 °C 64.8 °F /  18.2 °C 29.8in /  1010.2hPa ESE 8.5mph /  13.7km/h 15mph /  24.1km/h 38.9% 0in /  0.0mm
19:19 93.2 °F /  34 °C 64.6 °F /  18.1 °C 29.8in /  1010.2hPa Este 8.5mph /  13.7km/h 15mph /  24.1km/h 39% 0in /  0.0mm
19:24 93.2 °F /  34 °C 64.6 °F /  18.1 °C 29.8in /  1010.1hPa Este 8.5mph /  13.7km/h 13mph /  20.9km/h 39% 0in /  0.0mm
19:29 93 °F /  33.9 °C 64.4 °F /  18 °C 29.8in /  1010.1hPa Este 7.9mph /  12.7km/h 11mph /  17.7km/h 39% 0in /  0.0mm
19:34 92.8 °F /  33.8 °C 64.4 °F /  18 °C 29.8in /  1010.1hPa Este 6.4mph /  10.3km/h 10mph /  16.1km/h 39.1% 0in /  0.0mm
19:39 92.8 °F /  33.8 °C 64.4 °F /  18 °C 29.8in /  1010.0hPa Este 6.2mph /  9.9km/h 9.2mph /  14.8km/h 39.2% 0in /  0.0mm
19:44 92.7 °F /  33.7 °C 64 °F /  17.8 °C 29.8in /  1010.0hPa NE 5.4mph /  8.7km/h 13.8mph /  22.2km/h 39% 0in /  0.0mm
19:49 92.1 °F /  33.4 °C 63.3 °F /  17.4 °C 29.8in /  1010.0hPa NE 5.8mph /  9.4km/h 19.6mph /  31.5km/h 38.5% 0in /  0.0mm
19:54 91.6 °F /  33.1 °C 63.3 °F /  17.4 °C 29.8in /  1010.0hPa NE 6.9mph /  11.1km/h 20mph /  32.2km/h 39.3% 0in /  0.0mm
19:59 90.9 °F /  32.7 °C 64.8 °F /  18.2 °C 29.8in /  1010.0hPa NE 7.8mph /  12.6km/h 17mph /  27.4km/h 42.1% 0in /  0.0mm
20:04 90 °F /  32.2 °C 65.1 °F /  18.4 °C 29.8in /  1010.0hPa NE 10mph /  16.1km/h 16.1mph /  25.9km/h 44.1% 0in /  0.0mm
20:09 89.2 °F /  31.8 °C 65.1 °F /  18.4 °C 29.8in /  1010.0hPa NE 9.9mph /  16km/h 16mph /  25.7km/h 45% 0in /  0.0mm
20:14 88.9 °F /  31.6 °C 65.5 °F /  18.6 °C 29.8in /  1010.0hPa NE 9.7mph /  15.6km/h 15mph /  24.1km/h 46% 0in /  0.0mm
20:19 88.3 °F /  31.3 °C 65.5 °F /  18.6 °C 29.8in /  1010.1hPa NNE 9.6mph /  15.4km/h 15mph /  24.1km/h 46.8% 0in /  0.0mm
20:24 88.2 °F /  31.2 °C 65.5 °F /  18.6 °C 29.8in /  1010.1hPa NE 9.2mph /  14.8km/h 15.2mph /  24.5km/h 47.3% 0in /  0.0mm
20:29 87.6 °F /  30.9 °C 65.5 °F /  18.6 °C 29.8in /  1010.1hPa NE 8.9mph /  14.3km/h 15mph /  24.1km/h 48% 0in /  0.0mm
20:34 87.3 °F /  30.7 °C 65.5 °F /  18.6 °C 29.8in /  1010.2hPa NE 8.1mph /  13km/h 15mph /  24.1km/h 48.5% 0in /  0.0mm
20:39 87.1 °F /  30.6 °C 65.5 °F /  18.6 °C 29.8in /  1010.2hPa NE 8.3mph /  13.3km/h 15mph /  24.1km/h 49% 0in /  0.0mm
20:44 86.7 °F /  30.4 °C 65.3 °F /  18.5 °C 29.8in /  1010.2hPa NE 8.7mph /  14km/h 13.8mph /  22.2km/h 49% 0in /  0.0mm
20:49 86.4 °F /  30.2 °C 64.9 °F /  18.3 °C 29.8in /  1010.3hPa NE 8.5mph /  13.7km/h 14mph /  22.5km/h 49% 0in /  0.0mm
20:54 86 °F /  30 °C 64.8 °F /  18.2 °C 29.8in /  1010.3hPa NE 8.1mph /  13km/h 12mph /  19.3km/h 49.3% 0in /  0.0mm
20:59 85.6 °F /  29.8 °C 64.9 °F /  18.3 °C 29.8in /  1010.3hPa NE 7.5mph /  12.1km/h 12.5mph /  20.1km/h 50% 0in /  0.0mm
21:04 85.3 °F /  29.6 °C 65.1 °F /  18.4 °C 29.8in /  1010.4hPa NE 6.2mph /  10km/h 13mph /  20.9km/h 51% 0in /  0.0mm
21:09 85.1 °F /  29.5 °C 65.3 °F /  18.5 °C 29.8in /  1010.4hPa NE 6.2mph /  10km/h 11.5mph /  18.5km/h 51.9% 0in /  0.0mm
21:14 84.9 °F /  29.4 °C 65.7 °F /  18.7 °C 29.8in /  1010.4hPa NE 6.2mph /  10km/h 13.8mph /  22.2km/h 52.6% 0in /  0.0mm
21:19 84.6 °F /  29.2 °C 65.7 °F /  18.7 °C 29.8in /  1010.6hPa NE 6.2mph /  10km/h 14mph /  22.5km/h 53% 0in /  0.0mm
21:24 84.6 °F /  29.2 °C 65.5 °F /  18.6 °C 29.8in /  1010.6hPa ENE 6.2mph /  10km/h 9mph /  14.5km/h 53% 0in /  0.0mm
21:29 84.2 °F /  29 °C 65.7 °F /  18.7 °C 29.8in /  1010.6hPa NE 5.7mph /  9.1km/h 9mph /  14.5km/h 53.8% 0in /  0.0mm
21:34 83.8 °F /  28.8 °C 65.5 °F /  18.6 °C 29.9in /  1010.8hPa NE 4.3mph /  6.9km/h 10.7mph /  17.2km/h 54% 0in /  0.0mm
21:39 83.7 °F /  28.7 °C 65.8 °F /  18.8 °C 29.9in /  1010.8hPa NE 4.7mph /  7.6km/h 12.3mph /  19.8km/h 55% 0in /  0.0mm
21:44 83.3 °F /  28.5 °C 66.6 °F /  19.2 °C 29.9in /  1010.8hPa NE 5.9mph /  9.5km/h 13mph /  20.9km/h 57.1% 0in /  0.0mm
21:49 82.9 °F /  28.3 °C 67.5 °F /  19.7 °C 29.9in /  1011.0hPa NE 6.4mph /  10.3km/h 13mph /  20.9km/h 59.6% 0in /  0.0mm
21:54 82.8 °F /  28.2 °C 67.6 °F /  19.8 °C 29.9in /  1011.0hPa NE 7.6mph /  12.2km/h 13mph /  20.9km/h 60.4% 0in /  0.0mm
21:59 82.6 °F /  28.1 °C 67.3 °F /  19.6 °C 29.9in /  1011.0hPa NE 7.6mph /  12.2km/h 15mph /  24.1km/h 60.1% 0in /  0.0mm
22:04 82.6 °F /  28.1 °C 67.3 °F /  19.6 °C 29.9in /  1011.0hPa NE 7.6mph /  12.2km/h 15mph /  24.1km/h 59.8% 0in /  0.0mm
22:09 82.6 °F /  28.1 °C 66.6 °F /  19.2 °C 29.9in /  1011.0hPa NE 7.9mph /  12.7km/h 15mph /  24.1km/h 58.7% 0in /  0.0mm
22:14 82.6 °F /  28.1 °C 66 °F /  18.9 °C 29.9in /  1011.0hPa NE 8.5mph /  13.7km/h 15mph /  24.1km/h 57.5% 0in /  0.0mm
22:19 82.6 °F /  28.1 °C 65.5 °F /  18.6 °C 29.9in /  1011.2hPa NE 8.5mph /  13.7km/h 13mph /  20.9km/h 56.3% 0in /  0.0mm
22:24 82.6 °F /  28.1 °C 65.3 °F /  18.5 °C 29.9in /  1011.2hPa NE 8.5mph /  13.7km/h 13mph /  20.9km/h 56% 0in /  0.0mm
22:29 82.6 °F /  28.1 °C 64.9 °F /  18.3 °C 29.9in /  1011.2hPa NE 8.2mph /  13.2km/h 12mph /  19.3km/h 55.4% 0in /  0.0mm
22:34 82.4 °F /  28 °C 64.6 °F /  18.1 °C 29.9in /  1011.4hPa NE 7.4mph /  11.9km/h 10mph /  16.1km/h 55% 0in /  0.0mm
22:39 82.4 °F /  28 °C 64.6 °F /  18.1 °C 29.9in /  1011.4hPa NE 6.8mph /  11km/h 10.4mph /  16.7km/h 55% 0in /  0.0mm
22:44 82.2 °F /  27.9 °C 64.4 °F /  18 °C 29.9in /  1011.4hPa NE 5.4mph /  8.7km/h 10mph /  16.1km/h 55% 0in /  0.0mm
22:49 82 °F /  27.8 °C 64.4 °F /  18 °C 29.9in /  1011.5hPa NE 5.4mph /  8.7km/h 10mph /  16.1km/h 55% 0in /  0.0mm
22:54 82 °F /  27.8 °C 64.4 °F /  18 °C 29.9in /  1011.5hPa NE 5.4mph /  8.7km/h 10mph /  16.1km/h 55.4% 0in /  0.0mm
22:59 81.9 °F /  27.7 °C 64.6 °F /  18.1 °C 29.9in /  1011.5hPa NE 5.7mph /  9.1km/h 9.7mph /  15.6km/h 56% 0in /  0.0mm
23:04 81.7 °F /  27.6 °C 64.8 °F /  18.2 °C 29.9in /  1011.7hPa NE 6.2mph /  10km/h 10mph /  16.1km/h 56.6% 0in /  0.0mm
23:09 81.3 °F /  27.4 °C 64.8 °F /  18.2 °C 29.9in /  1011.7hPa NE 5.9mph /  9.5km/h 9mph /  14.5km/h 57.2% 0in /  0.0mm
23:14 81.1 °F /  27.3 °C 65.3 °F /  18.5 °C 29.9in /  1011.7hPa NE 5.2mph /  8.4km/h 8mph /  12.9km/h 58.4% 0in /  0.0mm
23:19 81 °F /  27.2 °C 66.7 °F /  19.3 °C 29.9in /  1011.7hPa NE 5mph /  8.1km/h 9.2mph /  14.8km/h 61.9% 0in /  0.0mm
23:24 80.8 °F /  27.1 °C 66.7 °F /  19.3 °C 29.9in /  1011.7hPa NE 4.7mph /  7.6km/h 9mph /  14.5km/h 62.8% 0in /  0.0mm
23:29 80.4 °F /  26.9 °C 67.5 °F /  19.7 °C 29.9in /  1011.7hPa NNE 4.8mph /  7.8km/h 8mph /  12.9km/h 64.7% 0in /  0.0mm
23:34 80.2 °F /  26.8 °C 67.5 °F /  19.7 °C 29.9in /  1011.7hPa NE 5.2mph /  8.4km/h 9.2mph /  14.8km/h 65.2% 0in /  0.0mm
23:39 80.1 °F /  26.7 °C 68 °F /  20 °C 29.9in /  1011.7hPa NE 5.4mph /  8.7km/h 9mph /  14.5km/h 66.8% 0in /  0.0mm
23:44 79.9 °F /  26.6 °C 68.7 °F /  20.4 °C 29.9in /  1011.7hPa NNE 5.9mph /  9.5km/h 9mph /  14.5km/h 68.8% 0in /  0.0mm
23:49 79.5 °F /  26.4 °C 69.4 °F /  20.8 °C 29.9in /  1011.8hPa NNE 5.7mph /  9.2km/h 9.2mph /  14.8km/h 71.3% 0in /  0.0mm
23:54 79.3 °F /  26.3 °C 70.2 °F /  21.2 °C 29.9in /  1011.8hPa NNE 5.2mph /  8.4km/h 9mph /  14.5km/h 73.5% 0in /  0.0mm
23:59 79.2 °F /  26.2 °C 70.5 °F /  21.4 °C 29.9in /  1011.8hPa NE 5.3mph /  8.5km/h 9mph /  14.5km/h 75.1% 0in /  0.0mm
Murcia-Puente Tocinos, España
Compliments of Weather Underground - 3 mb

La estación de MeteoMurcia.com, publica sus datos en los siguientes proyectos:

Weather Underground PWS IMURCIAP2 Meteoclimatic www.awekas.at

W3Counter
Web Analytics